createdAt,value
2022-08-19T00:00:56.240Z,25.08
2022-08-19T00:05:58.953Z,25.48
2022-08-19T00:11:01.695Z,24.71
2022-08-19T00:16:06.909Z,24.32
2022-08-19T00:21:10.566Z,25.20
2022-08-19T00:26:13.448Z,25.03
2022-08-19T00:31:16.603Z,24.24
2022-08-19T00:36:19.627Z,24.41
2022-08-19T00:41:25.094Z,25.27
2022-08-19T00:46:29.445Z,25.36
2022-08-19T00:51:33.904Z,24.48
2022-08-19T00:56:37.857Z,25.00
2022-08-19T01:01:43.522Z,24.97
2022-08-19T01:06:46.292Z,24.03
2022-08-19T01:11:49.601Z,23.90
2022-08-19T01:16:55.562Z,24.85
2022-08-19T01:22:14.203Z,25.37
2022-08-19T01:27:18.737Z,24.92
2022-08-19T01:32:33.984Z,24.15
2022-08-19T01:37:48.102Z,24.95
2022-08-19T01:42:53.861Z,25.26
2022-08-19T01:48:01.482Z,24.10
2022-08-19T01:53:09.432Z,24.20
2022-08-19T01:58:25.826Z,24.94
2022-08-19T02:03:30.076Z,25.20
2022-08-19T02:08:35.792Z,25.27
2022-08-19T02:13:38.521Z,25.39
2022-08-19T02:18:41.234Z,24.29
2022-08-19T02:23:44.289Z,24.12
2022-08-19T02:28:47.014Z,24.91
2022-08-19T02:33:50.035Z,25.17
2022-08-19T02:38:54.718Z,24.16
2022-08-19T02:44:14.274Z,24.65
2022-08-19T02:49:22.172Z,25.26
2022-08-19T02:54:24.977Z,24.90
2022-08-19T02:59:31.475Z,23.84
2022-08-19T03:04:34.269Z,24.66
2022-08-19T03:09:40.674Z,25.42
2022-08-19T03:14:43.801Z,24.99
2022-08-19T03:19:46.503Z,23.84
2022-08-19T03:24:49.262Z,24.40
2022-08-19T03:29:52.576Z,24.69
2022-08-19T03:34:55.379Z,24.67
2022-08-19T03:39:58.098Z,24.61
2022-08-19T03:45:00.984Z,24.71
2022-08-19T03:50:04.056Z,24.83
2022-08-19T03:55:07.787Z,24.71
2022-08-19T04:00:13.536Z,24.67
2022-08-19T04:05:16.825Z,24.64
2022-08-19T04:10:19.660Z,24.66
2022-08-19T04:15:22.357Z,24.82
2022-08-19T04:20:25.077Z,25.09
2022-08-19T04:25:27.802Z,25.40
2022-08-19T04:30:30.488Z,25.31
2022-08-19T04:35:46.210Z,24.26
2022-08-19T04:41:09.112Z,24.94
2022-08-19T04:46:18.151Z,25.49
2022-08-19T04:51:37.913Z,24.76
2022-08-19T04:56:41.809Z,24.96
2022-08-19T05:01:44.656Z,25.62
2022-08-19T05:06:49.586Z,24.83
2022-08-19T05:11:54.670Z,24.92
2022-08-19T05:17:25.622Z,26.03
2022-08-19T05:22:38.411Z,25.88
2022-08-19T05:27:42.713Z,25.90
2022-08-19T05:32:45.840Z,26.08
2022-08-19T05:37:48.553Z,26.34
2022-08-19T05:42:57.700Z,26.50
2022-08-19T05:48:00.573Z,26.69
2022-08-19T05:53:03.781Z,26.90
2022-08-19T05:58:08.732Z,27.20
2022-08-19T06:03:13.439Z,27.40
2022-08-19T06:08:19.492Z,27.46
2022-08-19T06:13:24.331Z,27.54
2022-08-19T06:18:27.420Z,27.74
2022-08-19T06:23:30.527Z,28.26
2022-08-19T06:28:34.684Z,28.92
2022-08-19T06:33:38.460Z,29.56
2022-08-19T06:38:41.681Z,30.21
2022-08-19T06:43:45.034Z,31.13
2022-08-19T06:48:49.749Z,32.10
2022-08-19T06:53:55.680Z,32.67
2022-08-19T06:58:59.448Z,33.21
2022-08-19T07:04:03.492Z,33.55
2022-08-19T07:09:10.492Z,34.09
2022-08-19T07:14:19.126Z,34.60
2022-08-19T07:19:24.790Z,35.05
2022-08-19T07:24:28.515Z,35.80
2022-08-19T07:29:38.345Z,36.08
2022-08-19T07:34:41.386Z,36.04
2022-08-19T07:39:45.884Z,35.84
2022-08-19T07:44:50.421Z,35.51
2022-08-19T07:49:53.617Z,35.26
2022-08-19T07:54:56.422Z,35.32
2022-08-19T08:00:00.273Z,35.28
2022-08-19T08:05:22.435Z,35.54
2022-08-19T08:10:25.295Z,35.80
2022-08-19T08:15:28.334Z,36.52
2022-08-19T08:20:32.558Z,36.77
2022-08-19T08:25:37.385Z,37.19
2022-08-19T08:30:45.075Z,37.44
2022-08-19T08:35:48.421Z,37.27
2022-08-19T08:41:20.615Z,37.47
2022-08-19T08:46:31.488Z,38.19
2022-08-19T08:56:54.302Z,39.05
2022-08-19T09:01:57.131Z,38.70
2022-08-19T09:07:36.051Z,38.32
2022-08-19T09:12:59.936Z,37.97
2022-08-19T09:18:07.191Z,38.40
2022-08-19T09:23:11.897Z,38.63
2022-08-19T09:28:22.492Z,39.03
2022-08-19T09:33:30.614Z,39.25
2022-08-19T09:38:33.645Z,39.74
2022-08-19T09:43:44.176Z,39.79
2022-08-19T09:48:53.149Z,39.68
2022-08-19T09:54:01.281Z,39.26
2022-08-19T09:59:07.868Z,39.80
2022-08-19T10:04:20.174Z,40.56
2022-08-19T10:09:26.254Z,41.13
2022-08-19T10:14:38.121Z,41.13
2022-08-19T10:19:42.076Z,41.54
2022-08-19T10:24:58.650Z,41.44
2022-08-19T10:30:02.697Z,41.71
2022-08-19T10:35:09.492Z,41.76
2022-08-19T10:40:12.956Z,41.98
2022-08-19T10:45:15.645Z,41.64
2022-08-19T10:50:37.431Z,41.80
2022-08-19T10:55:59.274Z,41.63
2022-08-19T11:01:02.340Z,41.32
2022-08-19T11:06:08.653Z,41.62
2022-08-19T11:11:11.769Z,41.60
2022-08-19T11:16:23.996Z,41.23
2022-08-19T11:21:33.340Z,40.84
2022-08-19T11:26:37.094Z,40.79
2022-08-19T11:31:42.861Z,41.18
2022-08-19T11:36:49.182Z,41.47
2022-08-19T11:41:52.483Z,41.12
2022-08-19T11:46:55.823Z,40.75
2022-08-19T11:51:59.494Z,40.73
2022-08-19T11:57:04.761Z,40.43
2022-08-19T12:02:07.487Z,40.11
2022-08-19T12:07:10.258Z,39.57
2022-08-19T12:12:13.210Z,39.15
2022-08-19T12:17:16.362Z,38.70
2022-08-19T12:22:19.588Z,38.55
2022-08-19T12:27:39.933Z,38.16
2022-08-19T12:32:44.245Z,38.02
2022-08-19T12:37:56.917Z,38.04
2022-08-19T12:43:00.508Z,37.47
2022-08-19T12:48:33.584Z,37.34
2022-08-19T12:53:27.087Z,37.52
2022-08-19T12:58:30.834Z,38.39
2022-08-19T13:03:36.432Z,39.73
2022-08-19T13:08:42.907Z,40.69
2022-08-19T13:13:51.507Z,40.60
2022-08-19T13:18:56.939Z,40.35
2022-08-19T13:23:59.980Z,39.83
2022-08-19T13:29:38.062Z,39.50
2022-08-19T13:34:47.749Z,38.18
2022-08-19T13:39:50.615Z,37.71
2022-08-19T13:44:55.765Z,37.90
2022-08-19T13:49:58.468Z,38.29
2022-08-19T13:55:01.222Z,38.28
2022-08-19T14:00:05.496Z,37.34
2022-08-19T14:05:12.601Z,36.39
2022-08-19T14:10:16.127Z,35.53
2022-08-19T14:15:18.895Z,35.33
2022-08-19T14:20:22.470Z,35.91
2022-08-19T14:25:31.046Z,35.78
2022-08-19T14:30:35.906Z,35.12
2022-08-19T14:35:39.096Z,34.69
2022-08-19T14:40:43.146Z,34.50
2022-08-19T14:45:46.305Z,34.40
2022-08-19T14:50:49.623Z,34.38
2022-08-19T14:55:53.108Z,34.58
2022-08-19T15:00:55.994Z,34.94
2022-08-19T15:06:00.180Z,35.50
2022-08-19T15:11:03.875Z,36.19
2022-08-19T15:16:06.934Z,36.85
2022-08-19T15:21:27.151Z,37.35
2022-08-19T15:26:33.479Z,37.67
2022-08-19T15:31:38.264Z,37.67
2022-08-19T15:36:41.789Z,37.48
2022-08-19T15:41:45.286Z,36.62
2022-08-19T15:46:49.450Z,35.38
2022-08-19T15:51:54.382Z,34.45
2022-08-19T15:57:15.720Z,33.88
2022-08-19T16:02:40.386Z,33.50
2022-08-19T16:07:43.260Z,33.28
2022-08-19T16:12:46.105Z,33.21
2022-08-19T16:17:55.493Z,33.08
2022-08-19T16:23:00.546Z,32.87
2022-08-19T16:28:06.630Z,32.65
2022-08-19T16:33:11.082Z,32.45
2022-08-19T16:38:13.783Z,32.26
2022-08-19T16:43:16.473Z,32.08
2022-08-19T16:48:20.594Z,31.90
2022-08-19T16:53:29.166Z,31.70
2022-08-19T16:58:34.449Z,31.52
2022-08-19T17:03:39.993Z,31.33
2022-08-19T17:08:48.504Z,31.17
2022-08-19T17:13:52.276Z,30.98
2022-08-19T17:18:57.541Z,30.79
2022-08-19T17:24:02.284Z,30.60
2022-08-19T17:29:06.054Z,30.39
2022-08-19T17:34:09.379Z,30.22
2022-08-19T17:39:12.173Z,30.04
2022-08-19T17:44:14.914Z,29.86
2022-08-19T17:49:17.991Z,29.70
2022-08-19T17:54:20.800Z,29.54
2022-08-19T17:59:23.610Z,29.39
2022-08-19T18:04:31.357Z,29.26
2022-08-19T18:09:42.283Z,29.13
2022-08-19T18:14:46.565Z,28.98
2022-08-19T18:19:49.492Z,28.87
2022-08-19T18:24:52.448Z,28.76
2022-08-19T18:29:59.860Z,28.67
2022-08-19T18:35:06.596Z,28.55
2022-08-19T18:40:31.698Z,28.45
2022-08-19T18:46:07.223Z,28.35
2022-08-19T18:51:11.383Z,28.27
2022-08-19T18:56:18.104Z,28.19
2022-08-19T19:01:50.693Z,28.14
2022-08-19T19:06:53.889Z,28.05
2022-08-19T19:12:00.530Z,27.96
2022-08-19T19:17:06.973Z,27.84
2022-08-19T19:22:13.233Z,27.73
2022-08-19T19:27:20.457Z,27.64
2022-08-19T19:32:28.529Z,27.58
2022-08-19T19:37:31.683Z,27.53
2022-08-19T19:42:35.201Z,27.48
2022-08-19T19:47:38.120Z,27.43
2022-08-19T19:52:41.190Z,27.39
2022-08-19T19:57:46.585Z,27.36
2022-08-19T20:02:50.917Z,27.33
2022-08-19T20:08:14.263Z,27.29
2022-08-19T20:13:17.165Z,27.24
2022-08-19T20:18:19.925Z,27.23
2022-08-19T20:23:23.637Z,27.21
2022-08-19T20:28:28.458Z,27.18
2022-08-19T20:33:31.500Z,27.16
2022-08-19T20:38:35.171Z,27.13
2022-08-19T20:43:38.890Z,27.09
2022-08-19T20:48:42.971Z,27.07
2022-08-19T20:53:45.793Z,27.05
2022-08-19T20:58:53.518Z,27.02
2022-08-19T21:03:58.336Z,26.99
2022-08-19T21:09:01.318Z,26.96
2022-08-19T21:14:04.096Z,26.94
2022-08-19T21:19:06.995Z,26.91
2022-08-19T21:24:09.935Z,26.86
2022-08-19T21:29:12.664Z,26.82
2022-08-19T21:34:15.621Z,26.80
2022-08-19T21:39:18.460Z,26.77
2022-08-19T21:44:21.298Z,26.74
2022-08-19T21:49:24.101Z,26.73
2022-08-19T21:54:26.822Z,26.69
2022-08-19T21:59:43.537Z,26.64
2022-08-19T22:04:47.167Z,26.61
2022-08-19T22:09:51.726Z,26.60
2022-08-19T22:14:55.692Z,26.56
2022-08-19T22:19:58.634Z,26.52
2022-08-19T22:25:31.611Z,26.47
2022-08-19T22:30:38.235Z,26.42
2022-08-19T22:35:42.527Z,26.39
2022-08-19T22:40:48.538Z,26.33
2022-08-19T22:45:53.716Z,26.26
2022-08-19T22:51:15.882Z,26.20
2022-08-19T22:56:20.250Z,26.10
2022-08-19T23:01:29.661Z,26.02
2022-08-19T23:06:36.374Z,25.98
2022-08-19T23:11:42.018Z,25.87
2022-08-19T23:16:50.761Z,24.73
2022-08-19T23:21:54.144Z,24.61
2022-08-19T23:27:15.205Z,25.28
2022-08-19T23:32:19.559Z,24.71
2022-08-19T23:37:22.274Z,24.44
2022-08-19T23:42:27.452Z,25.36
2022-08-19T23:47:30.205Z,25.42
2022-08-19T23:52:35.594Z,25.35
2022-08-19T23:57:38.485Z,25.36
